createdAt,value
2019-04-22T00:02:11.239Z,18.93
2019-04-22T00:06:42.704Z,20.67
2019-04-22T00:10:46.770Z,17.70
2019-04-22T00:14:47.994Z,19.97
2019-04-22T00:23:03.655Z,22.57
2019-04-22T00:27:26.134Z,21.90
2019-04-22T00:31:32.719Z,21.20
2019-04-22T00:35:35.474Z,19.90
2019-04-22T00:39:49.839Z,18.53
2019-04-22T00:43:59.598Z,20.10
2019-04-22T00:48:00.875Z,18.23
2019-04-22T00:52:09.356Z,20.93
2019-04-22T01:00:25.039Z,20.53
2019-04-22T01:04:34.538Z,19.93
2019-04-22T01:08:43.532Z,16.50
2019-04-22T01:12:45.691Z,16.57
2019-04-22T01:16:50.502Z,19.23
2019-04-22T01:21:17.790Z,16.43
2019-04-22T01:25:02.453Z,17.43
2019-04-22T01:29:05.021Z,16.07
2019-04-22T01:33:05.881Z,19.47
2019-04-22T01:37:26.947Z,18.30
2019-04-22T01:41:48.608Z,18.43
2019-04-22T01:45:50.670Z,18.43
2019-04-22T01:49:55.689Z,20.27
2019-04-22T01:54:05.499Z,21.17
2019-04-22T01:58:04.546Z,20.67
2019-04-22T02:02:16.268Z,21.43
2019-04-22T02:06:25.443Z,19.40
2019-04-22T02:10:34.805Z,16.20
2019-04-22T02:14:41.047Z,17.27
2019-04-22T02:18:44.936Z,19.53
2019-04-22T02:23:30.590Z,18.20
2019-04-22T02:27:27.462Z,16.73
2019-04-22T02:35:58.115Z,17.63
2019-04-22T02:39:43.046Z,17.80
2019-04-22T02:43:59.807Z,15.90
2019-04-22T02:48:06.694Z,17.87
2019-04-22T02:52:07.627Z,17.20
2019-04-22T02:56:23.114Z,14.47
2019-04-22T03:00:27.247Z,19.30
2019-04-22T03:12:33.265Z,17.13
2019-04-22T03:16:48.813Z,19.33
2019-04-22T03:21:00.330Z,15.33
2019-04-22T03:25:32.359Z,16.30
2019-04-22T03:29:04.760Z,14.10
2019-04-22T03:33:23.465Z,16.13
2019-04-22T03:37:32.355Z,18.70
2019-04-22T03:42:01.964Z,15.80
2019-04-22T03:50:04.146Z,17.63
2019-04-22T03:54:03.413Z,20.00
2019-04-22T04:02:13.994Z,16.80
2019-04-22T04:06:18.011Z,15.37
2019-04-22T04:10:27.830Z,15.57
2019-04-22T04:14:38.056Z,14.50
2019-04-22T04:18:39.597Z,15.17
2019-04-22T04:22:55.999Z,13.00
2019-04-22T04:31:17.470Z,17.33
2019-04-22T04:35:12.807Z,14.40
2019-04-22T04:39:05.533Z,13.03
2019-04-22T04:47:38.913Z,17.87
2019-04-22T04:55:38.776Z,17.07
2019-04-22T05:07:56.062Z,16.00
2019-04-22T05:12:29.164Z,16.77
2019-04-22T05:20:27.328Z,15.23
2019-04-22T05:28:24.459Z,11.90
2019-04-22T05:36:43.652Z,12.13
2019-04-22T05:40:44.119Z,11.47
2019-04-22T05:44:54.937Z,11.40
2019-04-22T05:49:04.392Z,13.23
2019-04-22T05:53:00.505Z,12.07
2019-04-22T05:57:14.379Z,11.03
2019-04-22T06:05:31.946Z,15.07
2019-04-22T06:09:32.667Z,14.40
2019-04-22T06:13:34.472Z,13.03
2019-04-22T06:17:57.420Z,13.77
2019-04-22T06:21:57.914Z,15.73
2019-04-22T06:26:12.625Z,12.50
2019-04-22T06:30:19.115Z,12.23
2019-04-22T06:34:26.556Z,12.00
2019-04-22T06:42:36.555Z,14.17
2019-04-22T06:46:41.853Z,12.73
2019-04-22T06:54:54.922Z,14.80
2019-04-22T06:58:59.077Z,14.60
2019-04-22T07:07:12.677Z,14.20
2019-04-22T07:11:12.523Z,13.13
2019-04-22T07:15:43.564Z,15.60
2019-04-22T07:19:36.099Z,11.67
2019-04-22T07:23:45.729Z,14.60
2019-04-22T07:27:50.611Z,11.00
2019-04-22T07:31:56.242Z,12.50
2019-04-22T07:36:25.748Z,13.23
2019-04-22T07:40:02.596Z,11.03
2019-04-22T07:44:16.670Z,11.37
2019-04-22T07:48:33.407Z,9.93
2019-04-22T07:52:31.912Z,10.03
2019-04-22T07:56:36.810Z,10.27
2019-04-22T08:00:41.084Z,12.50
2019-04-22T08:04:59.022Z,8.23
2019-04-22T08:09:00.272Z,11.57
2019-04-22T08:13:04.921Z,12.35
2019-04-22T08:17:36.523Z,11.15
2019-04-22T08:21:18.476Z,15.23
2019-04-22T08:25:24.830Z,11.77
2019-04-22T08:29:37.257Z,9.85
2019-04-22T08:33:44.556Z,7.05
2019-04-22T08:37:57.582Z,11.43
2019-04-22T08:41:43.421Z,6.55
2019-04-22T08:46:02.607Z,11.93
2019-04-22T08:50:07.805Z,10.78
2019-04-22T08:54:13.591Z,8.50
2019-04-22T09:06:49.341Z,9.28
2019-04-22T09:10:43.326Z,6.90
2019-04-22T09:14:45.867Z,7.50
2019-04-22T09:27:11.231Z,6.67
2019-04-22T09:31:29.232Z,8.08
2019-04-22T09:35:30.331Z,6.83
2019-04-22T09:39:34.669Z,9.15
2019-04-22T09:43:49.085Z,6.10
2019-04-22T09:51:55.430Z,6.95
2019-04-22T09:56:03.680Z,7.37
2019-04-22T10:00:10.928Z,7.72
2019-04-22T10:04:14.343Z,7.55
2019-04-22T10:08:24.159Z,7.42
2019-04-22T10:12:32.141Z,8.05
2019-04-22T10:16:37.083Z,7.15
2019-04-22T10:20:48.525Z,7.67
2019-04-22T10:24:52.003Z,8.55
2019-04-22T10:33:05.714Z,5.22
2019-04-22T10:36:54.327Z,8.50
2019-04-22T10:40:56.542Z,9.70
2019-04-22T10:45:01.908Z,6.75
2019-04-22T10:49:08.272Z,6.08
2019-04-22T10:53:15.481Z,8.28
2019-04-22T10:57:22.034Z,5.50
2019-04-22T11:01:27.600Z,6.03
2019-04-22T11:05:34.304Z,10.43
2019-04-22T11:09:50.773Z,6.05
2019-04-22T11:13:47.602Z,6.42
2019-04-22T11:17:53.535Z,8.20
2019-04-22T11:22:07.715Z,7.65
2019-04-22T11:26:08.161Z,10.05
2019-04-22T11:30:18.504Z,9.13
2019-04-22T11:34:22.215Z,8.10
2019-04-22T11:38:28.720Z,5.47
2019-04-22T11:42:34.334Z,6.63
2019-04-22T11:46:39.531Z,7.87
2019-04-22T11:50:46.172Z,5.70
2019-04-22T11:54:52.732Z,7.80
2019-04-22T11:59:00.470Z,7.25
2019-04-22T12:03:07.341Z,6.40
2019-04-22T12:07:12.877Z,5.03
2019-04-22T12:11:18.708Z,6.83
2019-04-22T12:15:24.651Z,5.50
2019-04-22T12:19:31.203Z,9.55
2019-04-22T12:23:37.065Z,9.63
2019-04-22T12:27:43.162Z,7.47
2019-04-22T12:31:49.431Z,5.67
2019-04-22T12:35:54.789Z,5.42
2019-04-22T12:40:00.398Z,11.28
2019-04-22T12:44:07.323Z,6.57
2019-04-22T12:48:14.855Z,6.90
2019-04-22T12:52:30.543Z,8.20
2019-04-22T12:56:27.847Z,5.55
2019-04-22T13:00:34.321Z,4.87
2019-04-22T13:04:40.558Z,5.83
2019-04-22T13:08:45.802Z,5.40
2019-04-22T13:12:50.991Z,6.42
2019-04-22T13:16:57.608Z,7.80
2019-04-22T13:21:04.211Z,4.10
2019-04-22T13:25:10.486Z,11.18
2019-04-22T13:29:16.920Z,8.40
2019-04-22T13:33:23.172Z,6.75
2019-04-22T13:37:28.639Z,6.30
2019-04-22T13:41:41.769Z,5.85
2019-04-22T13:45:40.901Z,5.75
2019-04-22T13:50:36.065Z,9.20
2019-04-22T13:58:14.603Z,5.10
2019-04-22T14:02:38.124Z,4.45
2019-04-22T14:06:44.852Z,6.83
2019-04-22T14:10:50.314Z,8.73
2019-04-22T14:14:56.375Z,5.33
2019-04-22T14:19:02.087Z,4.53
2019-04-22T14:23:08.360Z,5.87
2019-04-22T14:27:27.747Z,4.08
2019-04-22T14:31:22.800Z,4.85
2019-04-22T14:35:29.136Z,5.97
2019-04-22T14:39:35.785Z,5.75
2019-04-22T14:44:23.508Z,4.85
2019-04-22T14:48:10.920Z,6.53
2019-04-22T14:52:24.753Z,4.90
2019-04-22T14:56:02.270Z,5.40
2019-04-22T15:00:11.576Z,4.50
2019-04-22T15:04:17.284Z,4.55
2019-04-22T15:08:22.742Z,8.48
2019-04-22T15:12:36.763Z,5.57
2019-04-22T15:17:00.790Z,8.08
2019-04-22T15:21:09.087Z,7.30
2019-04-22T15:25:14.516Z,6.45
2019-04-22T15:29:21.039Z,5.22
2019-04-22T15:33:27.635Z,6.05
2019-04-22T15:37:33.185Z,5.13
2019-04-22T15:41:38.755Z,6.35
2019-04-22T15:45:43.942Z,4.20
2019-04-22T15:49:49.952Z,6.03
2019-04-22T15:53:55.810Z,5.78
2019-04-22T15:58:01.820Z,5.05
2019-04-22T16:02:08.286Z,6.17
2019-04-22T16:06:15.663Z,6.72
2019-04-22T16:10:21.992Z,7.20
2019-04-22T16:14:32.838Z,7.12
2019-04-22T16:18:34.124Z,3.65
2019-04-22T16:22:57.110Z,5.73
2019-04-22T16:27:16.490Z,5.65
2019-04-22T16:31:22.615Z,5.83
2019-04-22T16:35:28.728Z,5.20
2019-04-22T16:39:33.921Z,5.58
2019-04-22T16:43:40.639Z,3.62
2019-04-22T16:47:45.924Z,3.80
2019-04-22T16:51:52.033Z,5.10
2019-04-22T16:55:57.293Z,5.25
2019-04-22T17:00:02.919Z,5.78
2019-04-22T17:04:18.925Z,5.78
2019-04-22T17:08:24.627Z,6.58
2019-04-22T17:12:41.844Z,5.07
2019-04-22T17:16:36.806Z,6.28
2019-04-22T17:21:05.443Z,6.53
2019-04-22T17:25:11.972Z,4.87
2019-04-22T17:30:16.666Z,3.80
2019-04-22T17:34:23.345Z,6.28
2019-04-22T17:38:40.778Z,5.83
2019-04-22T17:42:58.937Z,6.53
2019-04-22T17:47:16.777Z,7.00
2019-04-22T17:51:50.343Z,5.00
2019-04-22T17:55:46.208Z,5.45
2019-04-22T17:59:44.767Z,5.58
2019-04-22T18:03:36.388Z,3.55
2019-04-22T18:07:55.905Z,3.87
2019-04-22T18:12:07.358Z,6.40
2019-04-22T18:16:11.863Z,6.67
2019-04-22T18:20:14.426Z,3.95
2019-04-22T18:24:13.039Z,4.50
2019-04-22T18:28:32.754Z,6.00
2019-04-22T18:32:41.065Z,7.17
2019-04-22T18:36:41.653Z,5.78
2019-04-22T18:40:53.356Z,4.70
2019-04-22T18:45:12.766Z,4.60
2019-04-22T18:49:08.066Z,4.85
2019-04-22T18:53:37.138Z,6.00
2019-04-22T18:57:44.081Z,7.10
2019-04-22T19:01:41.912Z,5.95
2019-04-22T19:06:20.428Z,5.08
2019-04-22T19:10:27.548Z,3.58
2019-04-22T19:14:26.423Z,4.58
2019-04-22T19:18:38.012Z,4.75
2019-04-22T19:22:43.852Z,5.30
2019-04-22T19:26:58.634Z,4.40
2019-04-22T19:30:56.336Z,3.70
2019-04-22T19:34:55.650Z,4.53
2019-04-22T19:38:59.198Z,3.45
2019-04-22T19:43:18.765Z,5.15
2019-04-22T19:51:27.826Z,3.52
2019-04-22T19:55:39.365Z,3.72
2019-04-22T19:59:46.538Z,2.98
2019-04-22T20:08:26.333Z,2.60
2019-04-22T20:12:30.880Z,3.87
2019-04-22T20:16:46.934Z,5.30
2019-04-22T20:20:56.072Z,5.90
2019-04-22T20:24:47.498Z,5.12
2019-04-22T20:28:59.003Z,3.50
2019-04-22T20:33:04.680Z,3.40
2019-04-22T20:37:22.300Z,3.15
2019-04-22T20:41:20.189Z,3.77
2019-04-22T20:45:35.118Z,2.65
2019-04-22T20:49:35.549Z,4.03
2019-04-22T20:53:52.315Z,3.25
2019-04-22T20:57:53.621Z,4.93
2019-04-22T21:01:58.917Z,3.92
2019-04-22T21:05:55.894Z,4.80
2019-04-22T21:10:09.163Z,3.65
2019-04-22T21:14:16.132Z,7.15
2019-04-22T21:18:24.773Z,3.40
2019-04-22T21:22:35.453Z,5.03
2019-04-22T21:26:39.978Z,4.42
2019-04-22T21:30:48.104Z,4.28
2019-04-22T21:35:04.154Z,5.40
2019-04-22T21:39:00.845Z,3.27
2019-04-22T21:43:16.226Z,3.90
2019-04-22T21:51:29.097Z,5.20
2019-04-22T21:55:29.773Z,3.52
2019-04-22T21:59:34.566Z,4.53
2019-04-22T22:03:47.761Z,4.20
2019-04-22T22:07:48.086Z,5.43
2019-04-22T22:11:57.493Z,4.13
2019-04-22T22:16:06.715Z,5.40
2019-04-22T22:20:12.750Z,5.90
2019-04-22T22:24:32.868Z,4.50
2019-04-22T22:28:52.142Z,5.83
2019-04-22T22:33:00.126Z,5.23
2019-04-22T22:36:50.205Z,8.17
2019-04-22T22:40:43.943Z,5.20
2019-04-22T22:45:00.632Z,3.63
2019-04-22T22:49:26.453Z,6.33
2019-04-22T22:53:34.003Z,5.47
2019-04-22T22:57:33.825Z,5.83
2019-04-22T23:01:41.115Z,6.40
2019-04-22T23:05:50.619Z,5.33
2019-04-22T23:09:58.607Z,4.70
2019-04-22T23:14:02.493Z,3.13
2019-04-22T23:17:45.811Z,5.17
2019-04-22T23:21:57.500Z,5.27
2019-04-22T23:26:40.405Z,2.47
2019-04-22T23:30:44.594Z,4.50
2019-04-22T23:35:06.759Z,3.77
2019-04-22T23:39:15.738Z,3.77
2019-04-22T23:43:27.607Z,4.93
2019-04-22T23:47:26.023Z,8.40
2019-04-22T23:51:51.665Z,7.50
2019-04-22T23:55:48.231Z,3.43
2019-04-22T23:59:55.386Z,6.53
